Bookmark and Share
Track history (hours):
 

Bahia Uno

Last reported at 2014-Apr-24 01:33 UTC. Time now 2014-Apr-24 02:07 UTC.
Position N 36°08' W 005°26'.

Length 40 m; draft 5.5 m.

Type: Ship. MMSI: 224127820.

NotesDate/timePositionNaut miles runAvg speedWind from/ knotsBaromVisibWave heightAir tempDewpointWater temp
2014-Apr-24 01:33N 36°08' W 005°26'0 0.0
2014-Apr-24 00:30N 36°08' W 005°26'0 0.0
2014-Apr-23 22:25N 36°08' W 005°26'0 0.0
2014-Apr-23 21:33N 36°08' W 005°26'0 0.0
2014-Apr-23 20:33N 36°08' W 005°26'0 0.0
2014-Apr-23 19:33N 36°08' W 005°26'1 0.5
2014-Apr-23 18:33N 36°09' W 005°25'3 2.6
2014-Apr-23 17:33N 36°06' W 005°25'0 0.0
2014-Apr-23 16:33N 36°06' W 005°25'0 0.0
2014-Apr-23 15:33N 36°06' W 005°25'2 1.8
2014-Apr-23 14:16N 36°08' W 005°26'0 0.0
2014-Apr-23 13:25N 36°08' W 005°26'0 0.0
2014-Apr-23 09:33N 36°08' W 005°26'0 0.0
2014-Apr-23 08:28N 36°08' W 005°26'0 0.0
2014-Apr-23 04:07N 36°08' W 005°26'0 0.0
2014-Apr-23 03:30N 36°08' W 005°26'0 0.0
2014-Apr-23 02:31N 36°08' W 005°26'0 0.0
2014-Apr-23 01:32N 36°08' W 005°26'0 0.0
2014-Apr-22 23:31N 36°08' W 005°26'0 0.0
2014-Apr-22 22:33N 36°08' W 005°26'0 0.0
2014-Apr-22 21:33N 36°08' W 005°26'0 0.0
2014-Apr-22 20:26N 36°08' W 005°26'0 0.0
2014-Apr-22 19:33N 36°08' W 005°26'0 0.0
2014-Apr-22 18:33N 36°08' W 005°26'3 3.2
2014-Apr-22 17:33N 36°05' W 005°24'0 0.1
2014-Apr-22 16:33N 36°05' W 005°24'0 0.2
2014-Apr-22 15:33N 36°05' W 005°24'3 3.4
2014-Apr-22 14:32N 36°08' W 005°26'0 0.0
2014-Apr-22 12:22N 36°08' W 005°26'0 0.0
2014-Apr-22 11:33N 36°08' W 005°26'0 0.0
2014-Apr-22 10:23N 36°08' W 005°26'0 0.0
2014-Apr-22 09:33N 36°08' W 005°26'3 2.5
2014-Apr-22 08:33N 36°06' W 005°25'0 0.0
2014-Apr-22 07:33N 36°06' W 005°25'0 0.1
2014-Apr-22 06:33N 36°06' W 005°25'1 0.5
2014-Apr-22 05:32N 36°06' W 005°25'2 0.6
2014-Apr-22 02:08N 36°08' W 005°26'0 0.0
2014-Apr-22 01:32N 36°08' W 005°26'0 0.0
2014-Apr-22 00:23N 36°08' W 005°26'0 0.0
2014-Apr-21 22:33N 36°08' W 005°26'0 0.0
2014-Apr-21 21:30N 36°08' W 005°26'0 0.0
2014-Apr-21 20:24N 36°08' W 005°26'0 0.0
2014-Apr-21 18:31N 36°08' W 005°26'0 0.0
2014-Apr-21 17:28N 36°08' W 005°26'0 0.0
2014-Apr-21 16:32N 36°08' W 005°26'0 0.0
2014-Apr-21 15:33N 36°08' W 005°26'0 0.0
2014-Apr-21 14:32N 36°08' W 005°26'0 0.0
2014-Apr-21 13:33N 36°08' W 005°26'1 0.2
2014-Apr-21 08:29N 36°09' W 005°25'0 0.2
2014-Apr-21 06:33N 36°09' W 005°25'0 0.0
2014-Apr-21 05:31N 36°09' W 005°25'1 1.0
2014-Apr-21 04:22N 36°08' W 005°26'0 0.4
2014-Apr-21 03:33N 36°08' W 005°26'0 0.0
2014-Apr-21 02:33N 36°08' W 005°26'0 0.0
2014-Apr-21 01:33N 36°08' W 005°26'0 0.0
2014-Apr-20 21:09N 36°08' W 005°26'0 0.0
2014-Apr-20 11:20N 36°08' W 005°26'0 0.0
2014-Apr-20 10:31N 36°08' W 005°26'0 0.0
2014-Apr-20 09:33N 36°08' W 005°26'0 0.0
2014-Apr-20 08:33N 36°08' W 005°26'0 0.0
2014-Apr-20 07:33N 36°08' W 005°26'0 0.1
2014-Apr-20 05:20N 36°08' W 005°26'0 0.0
2014-Apr-20 04:19N 36°08' W 005°26'1 0.9
2014-Apr-20 03:33N 36°08' W 005°25'0 0.0
2014-Apr-20 02:33N 36°08' W 005°25'0 0.0
2014-Apr-20 01:33N 36°08' W 005°25'0 0.0
2014-Apr-20 00:33N 36°08' W 005°25'2 2.5
2014-Apr-19 23:33N 36°05' W 005°25'0 0.0
2014-Apr-19 22:33N 36°05' W 005°25'0 0.0
2014-Apr-19 21:33N 36°05' W 005°25'0 0.0
2014-Apr-19 20:33N 36°05' W 005°25'0 0.3
2014-Apr-19 19:33N 36°05' W 005°25'1 1.5
2014-Apr-19 18:33N 36°07' W 005°25'0 0.1
2014-Apr-19 17:33N 36°07' W 005°25'0 0.3
2014-Apr-19 16:33N 36°06' W 005°25'0 0.0
2014-Apr-19 15:32N 36°06' W 005°25'0 0.0
2014-Apr-19 14:33N 36°06' W 005°25'1 0.7
2014-Apr-19 13:33N 36°06' W 005°24'0 0.0
2014-Apr-19 12:34N 36°06' W 005°24'3 3.1
2014-Apr-19 11:33N 36°09' W 005°25'0 0.3
2014-Apr-19 10:14N 36°09' W 005°26'0 0.0
2014-Apr-19 09:25N 36°09' W 005°26'0 0.0
2014-Apr-19 08:12N 36°09' W 005°26'0 0.6
2014-Apr-19 07:33N 36°09' W 005°26'0 0.0
2014-Apr-19 06:33N 36°09' W 005°26'1 0.8
2014-Apr-19 05:33N 36°08' W 005°26'0 0.1
2014-Apr-19 04:32N 36°08' W 005°26'0 0.0
2014-Apr-19 03:33N 36°08' W 005°26'0 0.0
2014-Apr-19 02:33N 36°08' W 005°26'0 0.0
2014-Apr-19 01:33N 36°08' W 005°26'0 0.0
2014-Apr-19 00:33N 36°08' W 005°26'0 0.0
2014-Apr-18 23:33N 36°08' W 005°26'0 0.0
2014-Apr-18 22:33N 36°08' W 005°26'0 0.0
2014-Apr-18 21:33N 36°08' W 005°26'0 0.3
2014-Apr-18 20:33N 36°09' W 005°26'0 0.0
2014-Apr-18 18:31N 36°09' W 005°26'0 0.0
2014-Apr-18 17:30N 36°09' W 005°26'0 0.4
2014-Apr-18 16:33N 36°08' W 005°26'0 0.0
2014-Apr-18 15:33N 36°08' W 005°26'0 0.0
2014-Apr-18 14:33N 36°08' W 005°26'0 0.0
2014-Apr-18 12:29N 36°08' W 005°26'0 0.0
2014-Apr-18 11:31N 36°08' W 005°26'0 0.0
2014-Apr-18 10:32N 36°08' W 005°26'0 0.4
2014-Apr-18 09:33N 36°09' W 005°26'0 0.2
2014-Apr-18 08:33N 36°09' W 005°26'0 0.0
2014-Apr-18 07:33N 36°09' W 005°26'0 0.0
2014-Apr-18 06:33N 36°09' W 005°26'0 0.0
2014-Apr-18 05:33N 36°09' W 005°26'1 0.0
2014-Apr-17 15:33N 36°08' W 005°26'0 0.0
2014-Apr-17 14:33N 36°08' W 005°26'0 0.0
2014-Apr-17 13:04N 36°08' W 005°26'2 3.4
2014-Apr-17 12:33N 36°07' W 005°24'1 1.2
2014-Apr-17 11:28N 36°06' W 005°24'0 0.2
2014-Apr-17 10:33N 36°06' W 005°24'0 0.0
2014-Apr-17 09:34N 36°06' W 005°24'0 0.1
2014-Apr-17 08:33N 36°06' W 005°24'0 0.1
2014-Apr-17 07:33N 36°06' W 005°24'2 2.0
2014-Apr-17 06:33N 36°08' W 005°25'1 0.6
2014-Apr-17 05:05N 36°08' W 005°26'0 0.0
2014-Apr-17 04:16N 36°08' W 005°26'0 0.0
2014-Apr-16 23:15N 36°08' W 005°26'0 0.0
2014-Apr-16 19:30N 36°08' W 005°26'0 0.4
2014-Apr-16 18:32N 36°09' W 005°26'0 0.0
2014-Apr-16 17:12N 36°09' W 005°26'0 0.5
2014-Apr-16 16:33N 36°08' W 005°26'0 0.0
2014-Apr-16 15:33N 36°08' W 005°26'0 0.0
2014-Apr-16 14:34N 36°08' W 005°26'0 0.0
2014-Apr-16 13:33N 36°08' W 005°26'0 0.0
2014-Apr-16 12:33N 36°08' W 005°26'0 0.0
2014-Apr-16 11:33N 36°08' W 005°26'0 0.0
2014-Apr-16 10:34N 36°08' W 005°26'0 0.0
2014-Apr-16 09:33N 36°08' W 005°26'0 0.0
2014-Apr-16 08:33N 36°08' W 005°26'0 0.0
2014-Apr-16 07:29N 36°08' W 005°26'0 0.0
2014-Apr-16 06:32N 36°08' W 005°26'0 0.0
2014-Apr-16 05:31N 36°08' W 005°26'0 0.0
2014-Apr-16 04:33N 36°08' W 005°26'0 0.0
2014-Apr-16 03:32N 36°08' W 005°26'0 0.0
2014-Apr-16 02:33N 36°08' W 005°26'0 0.0
2014-Apr-16 01:29N 36°08' W 005°26'0 0.3
2014-Apr-16 00:33N 36°08' W 005°26'3 3.0
2014-Apr-15 23:33N 36°06' W 005°25'0 0.1
2014-Apr-15 22:31N 36°05' W 005°25'0 0.1
2014-Apr-15 21:33N 36°05' W 005°25'0 0.0
2014-Apr-15 20:33N 36°05' W 005°25'0 0.1
2014-Apr-15 19:33N 36°05' W 005°25'1 0.5
2014-Apr-15 18:33N 36°05' W 005°24'3 3.1
2014-Apr-15 17:34N 36°08' W 005°26'0 0.0
2014-Apr-15 16:33N 36°08' W 005°26'0 0.0
2014-Apr-15 15:33N 36°08' W 005°26'0 0.0
2014-Apr-15 14:33N 36°08' W 005°26'0 0.0
2014-Apr-15 12:32N 36°08' W 005°26'0 0.0
2014-Apr-15 11:34N 36°08' W 005°26'0 0.1
2014-Apr-15 07:32N 36°08' W 005°26'0 0.0
2014-Apr-15 06:33N 36°08' W 005°26'1 0.8
2014-Apr-15 05:34N 36°08' W 005°26'0 0.1
2014-Apr-15 03:33N 36°08' W 005°26'1 0.6
2014-Apr-15 02:33N 36°08' W 005°26'0 0.0
2014-Apr-15 01:32N 36°08' W 005°26'0 0.3
2014-Apr-15 00:33N 36°08' W 005°26'0 0.0
2014-Apr-14 22:33N 36°08' W 005°26'0 0.0
2014-Apr-14 21:30N 36°08' W 005°26'0 0.0
2014-Apr-14 20:33N 36°08' W 005°26'0 0.0
2014-Apr-14 19:34N 36°08' W 005°26'0 0.0
2014-Apr-14 18:31N 36°08' W 005°26'3 0.6
2014-Apr-14 13:34N 36°06' W 005°24'0 0.1
2014-Apr-14 11:31N 36°06' W 005°24'0 0.2
2014-Apr-14 09:34N 36°06' W 005°24'2 2.4
2014-Apr-14 08:33N 36°08' W 005°26'0 0.0
2014-Apr-14 07:33N 36°08' W 005°26'0 0.0
2014-Apr-14 06:33N 36°08' W 005°26'0 0.0
2014-Apr-14 05:32N 36°08' W 005°26'  

Dump ship's entire track history

sailing weather and tide predictions

Bahia Uno — ECFT — position and weather